sensor_id;sensor_type;location;lat;lon;timestamp;pressure;altitude;pressure_sealevel;temperature;humidity
73240;BME280;61452;40.054;4.110;2024-03-23T00:57:13;101914.50;;;17.13;100.00
73240;BME280;61452;40.054;4.110;2024-03-23T01:02:14;101912.63;;;17.15;100.00
73240;BME280;61452;40.054;4.110;2024-03-23T01:07:16;101919.81;;;17.13;100.00
73240;BME280;61452;40.054;4.110;2024-03-23T01:12:17;101916.38;;;17.11;100.00
73240;BME280;61452;40.054;4.110;2024-03-23T01:17:18;101913.66;;;17.13;100.00
73240;BME280;61452;40.054;4.110;2024-03-23T01:22:19;101903.91;;;17.13;100.00
73240;BME280;61452;40.054;4.110;2024-03-23T01:27:20;101895.94;;;17.13;100.00
73240;BME280;61452;40.054;4.110;2024-03-23T01:32:21;101885.44;;;17.12;100.00
73240;BME280;61452;40.054;4.110;2024-03-23T01:37:22;101875.88;;;17.09;100.00
73240;BME280;61452;40.054;4.110;2024-03-23T01:42:23;101871.41;;;17.10;100.00
73240;BME280;61452;40.054;4.110;2024-03-23T01:47:24;101862.69;;;17.08;100.00
73240;BME280;61452;40.054;4.110;2024-03-23T01:52:26;101856.47;;;17.09;100.00
73240;BME280;61452;40.054;4.110;2024-03-23T01:57:28;101855.50;;;17.10;100.00
73240;BME280;61452;40.054;4.110;2024-03-23T02:02:29;101851.03;;;17.10;100.00
73240;BME280;61452;40.054;4.110;2024-03-23T02:07:30;101852.94;;;17.08;100.00
73240;BME280;61452;40.054;4.110;2024-03-23T02:12:31;101854.75;;;17.08;100.00
73240;BME280;61452;40.054;4.110;2024-03-23T02:17:34;101874.16;;;17.08;100.00
73240;BME280;61452;40.054;4.110;2024-03-23T02:22:36;101881.25;;;17.08;100.00
73240;BME280;61452;40.054;4.110;2024-03-23T02:27:38;101886.56;;;17.08;100.00
73240;BME280;61452;40.054;4.110;2024-03-23T02:32:41;101883.06;;;17.07;100.00
73240;BME280;61452;40.054;4.110;2024-03-23T02:37:42;101866.22;;;17.08;100.00
73240;BME280;61452;40.054;4.110;2024-03-23T02:42:43;101876.13;;;17.05;100.00
73240;BME280;61452;40.054;4.110;2024-03-23T02:47:44;101863.72;;;17.05;100.00
73240;BME280;61452;40.054;4.110;2024-03-23T02:52:45;101870.06;;;17.03;100.00
73240;BME280;61452;40.054;4.110;2024-03-23T02:57:47;101868.16;;;17.05;100.00
73240;BME280;61452;40.054;4.110;2024-03-23T03:02:48;101866.28;;;17.07;100.00
73240;BME280;61452;40.054;4.110;2024-03-23T03:07:49;101854.91;;;17.05;100.00
73240;BME280;61452;40.054;4.110;2024-03-23T03:12:50;101862.97;;;17.03;100.00
73240;BME280;61452;40.054;4.110;2024-03-23T03:17:51;101885.13;;;17.02;100.00
73240;BME280;61452;40.054;4.110;2024-03-23T03:22:52;101883.13;;;17.06;100.00
73240;BME280;61452;40.054;4.110;2024-03-23T03:27:54;101865.63;;;17.03;100.00
73240;BME280;61452;40.054;4.110;2024-03-23T03:32:55;101869.09;;;17.04;100.00
73240;BME280;61452;40.054;4.110;2024-03-23T03:37:56;101853.38;;;17.01;100.00
73240;BME280;61452;40.054;4.110;2024-03-23T03:42:57;101856.13;;;16.99;100.00
73240;BME280;61452;40.054;4.110;2024-03-23T03:47:58;101846.22;;;17.03;100.00
73240;BME280;61452;40.054;4.110;2024-03-23T03:53:00;101853.31;;;17.02;100.00
73240;BME280;61452;40.054;4.110;2024-03-23T03:58:01;101855.19;;;17.00;100.00
73240;BME280;61452;40.054;4.110;2024-03-23T04:03:02;101849.09;;;16.98;100.00
73240;BME280;61452;40.054;4.110;2024-03-23T04:08:04;101853.47;;;16.99;100.00
73240;BME280;61452;40.054;4.110;2024-03-23T04:13:05;101846.38;;;16.99;100.00
73240;BME280;61452;40.054;4.110;2024-03-23T04:18:06;101825.19;;;16.99;100.00
73240;BME280;61452;40.054;4.110;2024-03-23T04:23:07;101831.41;;;16.98;100.00
73240;BME280;61452;40.054;4.110;2024-03-23T04:28:08;101842.00;;;16.98;100.00
73240;BME280;61452;40.054;4.110;2024-03-23T04:33:10;101850.09;;;16.97;100.00
73240;BME280;61452;40.054;4.110;2024-03-23T04:38:11;101857.91;;;16.98;100.00
73240;BME280;61452;40.054;4.110;2024-03-23T04:43:12;101860.69;;;16.97;100.00
73240;BME280;61452;40.054;4.110;2024-03-23T04:48:13;101869.56;;;16.96;100.00
73240;BME280;61452;40.054;4.110;2024-03-23T04:53:14;101873.16;;;16.95;100.00
73240;BME280;61452;40.054;4.110;2024-03-23T04:58:16;101883.75;;;16.95;100.00
73240;BME280;61452;40.054;4.110;2024-03-23T05:03:17;101889.13;;;16.93;100.00
73240;BME280;61452;40.054;4.110;2024-03-23T05:08:20;101871.53;;;16.92;100.00
73240;BME280;61452;40.054;4.110;2024-03-23T05:13:21;101893.59;;;16.93;100.00
73240;BME280;61452;40.054;4.110;2024-03-23T05:18:22;101927.03;;;16.95;100.00
73240;BME280;61452;40.054;4.110;2024-03-23T05:23:24;101930.53;;;16.96;100.00
73240;BME280;61452;40.054;4.110;2024-03-23T05:28:25;101946.50;;;16.94;100.00
73240;BME280;61452;40.054;4.110;2024-03-23T05:33:26;101965.13;;;16.93;100.00
73240;BME280;61452;40.054;4.110;2024-03-23T05:38:27;101968.72;;;16.92;100.00
73240;BME280;61452;40.054;4.110;2024-03-23T05:43:31;101967.03;;;16.91;100.00
73240;BME280;61452;40.054;4.110;2024-03-23T05:48:32;101975.00;;;16.91;100.00
73240;BME280;61452;40.054;4.110;2024-03-23T05:53:34;101977.53;;;16.92;100.00
73240;BME280;61452;40.054;4.110;2024-03-23T05:58:35;101976.59;;;16.93;100.00
73240;BME280;61452;40.054;4.110;2024-03-23T06:03:36;101989.00;;;16.93;100.00
73240;BME280;61452;40.054;4.110;2024-03-23T06:08:38;101988.31;;;16.89;100.00
73240;BME280;61452;40.054;4.110;2024-03-23T06:13:39;101991.13;;;16.86;100.00
73240;BME280;61452;40.054;4.110;2024-03-23T06:18:40;101991.25;;;16.85;100.00
73240;BME280;61452;40.054;4.110;2024-03-23T06:23:42;101991.13;;;16.86;100.00
73240;BME280;61452;40.054;4.110;2024-03-23T06:28:43;101986.53;;;16.90;100.00
73240;BME280;61452;40.054;4.110;2024-03-23T06:33:44;101997.22;;;16.88;100.00
73240;BME280;61452;40.054;4.110;2024-03-23T06:38:45;102012.19;;;16.89;100.00
73240;BME280;61452;40.054;4.110;2024-03-23T06:43:46;102001.72;;;16.86;100.00
73240;BME280;61452;40.054;4.110;2024-03-23T06:48:47;101999.06;;;16.86;100.00
73240;BME280;61452;40.054;4.110;2024-03-23T06:53:49;102006.16;;;16.86;100.00
73240;BME280;61452;40.054;4.110;2024-03-23T06:58:51;102014.97;;;16.86;100.00
73240;BME280;61452;40.054;4.110;2024-03-23T07:03:52;102037.03;;;16.87;100.00
73240;BME280;61452;40.054;4.110;2024-03-23T07:08:53;102029.94;;;16.87;100.00
73240;BME280;61452;40.054;4.110;2024-03-23T07:13:55;102027.28;;;16.87;100.00
73240;BME280;61452;40.054;4.110;2024-03-23T07:18:56;102016.78;;;16.86;100.00
73240;BME280;61452;40.054;4.110;2024-03-23T07:23:57;102008.94;;;16.84;100.00
73240;BME280;61452;40.054;4.110;2024-03-23T07:28:58;102000.97;;;16.84;100.00
73240;BME280;61452;40.054;4.110;2024-03-23T07:33:59;101998.41;;;16.83;100.00
73240;BME280;61452;40.054;4.110;2024-03-23T07:39:00;102005.41;;;16.84;100.00
73240;BME280;61452;40.054;4.110;2024-03-23T07:44:01;102038.94;;;16.85;100.00
73240;BME280;61452;40.054;4.110;2024-03-23T07:49:04;102037.13;;;16.85;100.00
73240;BME280;61452;40.054;4.110;2024-03-23T07:54:05;102050.47;;;16.84;100.00
73240;BME280;61452;40.054;4.110;2024-03-23T07:59:06;102060.13;;;16.85;100.00
73240;BME280;61452;40.054;4.110;2024-03-23T08:04:07;102057.38;;;16.86;100.00
73240;BME280;61452;40.054;4.110;2024-03-23T08:09:08;102076.88;;;16.85;100.00
73240;BME280;61452;40.054;4.110;2024-03-23T08:14:09;102083.13;;;16.84;100.00
73240;BME280;61452;40.054;4.110;2024-03-23T08:19:10;102092.00;;;16.83;100.00
73240;BME280;61452;40.054;4.110;2024-03-23T08:24:11;102092.94;;;16.82;100.00
73240;BME280;61452;40.054;4.110;2024-03-23T08:29:12;102101.75;;;16.83;100.00
73240;BME280;61452;40.054;4.110;2024-03-23T08:34:14;102117.59;;;16.84;100.00
73240;BME280;61452;40.054;4.110;2024-03-23T08:39:15;102123.81;;;16.83;100.00
73240;BME280;61452;40.054;4.110;2024-03-23T08:44:16;102142.38;;;16.83;100.00
73240;BME280;61452;40.054;4.110;2024-03-23T08:49:17;102137.91;;;16.84;100.00
73240;BME280;61452;40.054;4.110;2024-03-23T08:54:19;102146.81;;;16.83;100.00
73240;BME280;61452;40.054;4.110;2024-03-23T08:59:21;102146.81;;;16.83;100.00
73240;BME280;61452;40.054;4.110;2024-03-23T09:04:24;102164.50;;;16.82;100.00
73240;BME280;61452;40.054;4.110;2024-03-23T09:09:25;102159.97;;;16.84;100.00
73240;BME280;61452;40.054;4.110;2024-03-23T09:14:27;102174.91;;;16.85;100.00
73240;BME280;61452;40.054;4.110;2024-03-23T09:19:29;102164.44;;;16.84;100.00
73240;BME280;61452;40.054;4.110;2024-03-23T09:24:30;102173.31;;;16.83;100.00
73240;BME280;61452;40.054;4.110;2024-03-23T09:29:32;102173.22;;;16.84;100.00
73240;BME280;61452;40.054;4.110;2024-03-23T09:34:34;102175.03;;;16.84;100.00
73240;BME280;61452;40.054;4.110;2024-03-23T09:39:35;102165.28;;;16.84;100.00
73240;BME280;61452;40.054;4.110;2024-03-23T09:44:36;102165.34;;;16.83;100.00
73240;BME280;61452;40.054;4.110;2024-03-23T09:49:37;102180.41;;;16.82;100.00
73240;BME280;61452;40.054;4.110;2024-03-23T09:54:39;102175.94;;;16.83;100.00
73240;BME280;61452;40.054;4.110;2024-03-23T09:59:40;102177.66;;;16.84;100.00
73240;BME280;61452;40.054;4.110;2024-03-23T10:04:41;102181.00;;;16.87;100.00
73240;BME280;61452;40.054;4.110;2024-03-23T10:09:42;102169.63;;;16.85;100.00
73240;BME280;61452;40.054;4.110;2024-03-23T10:14:44;102168.00;;;16.83;100.00
73240;BME280;61452;40.054;4.110;2024-03-23T10:19:46;102168.88;;;16.83;100.00
73240;BME280;61452;40.054;4.110;2024-03-23T10:24:49;102168.78;;;16.85;100.00
73240;BME280;61452;40.054;4.110;2024-03-23T10:29:50;102169.72;;;16.84;100.00
73240;BME280;61452;40.054;4.110;2024-03-23T10:34:51;102174.91;;;16.85;100.00
73240;BME280;61452;40.054;4.110;2024-03-23T10:39:52;102175.03;;;16.84;100.00
73240;BME280;61452;40.054;4.110;2024-03-23T10:44:53;102181.19;;;16.84;100.00
73240;BME280;61452;40.054;4.110;2024-03-23T10:49:56;102191.78;;;16.84;100.00
73240;BME280;61452;40.054;4.110;2024-03-23T10:54:58;102183.72;;;16.86;100.00
73240;BME280;61452;40.054;4.110;2024-03-23T11:00:03;102176.63;;;16.86;100.00
73240;BME280;61452;40.054;4.110;2024-03-23T11:10:31;102181.06;;;16.86;100.00
73240;BME280;61452;40.054;4.110;2024-03-23T11:15:33;102191.69;;;16.86;100.00
73240;BME280;61452;40.054;4.110;2024-03-23T11:20:35;102204.94;;;16.86;100.00
73240;BME280;61452;40.054;4.110;2024-03-23T11:25:36;102210.16;;;16.87;100.00
73240;BME280;61452;40.054;4.110;2024-03-23T11:30:37;102217.19;;;16.88;100.00
73240;BME280;61452;40.054;4.110;2024-03-23T11:35:42;102210.94;;;16.89;100.00
73240;BME280;61452;40.054;4.110;2024-03-23T11:40:46;102211.88;;;16.88;100.00
73240;BME280;61452;40.054;4.110;2024-03-23T11:45:52;102210.16;;;16.87;100.00
73240;BME280;61452;40.054;4.110;2024-03-23T11:50:58;102179.16;;;16.89;100.00
73240;BME280;61452;40.054;4.110;2024-03-23T11:55:59;102172.13;;;16.88;100.00
73240;BME280;61452;40.054;4.110;2024-03-23T12:01:04;102161.44;;;16.90;100.00
73240;BME280;61452;40.054;4.110;2024-03-23T12:06:07;102142.97;;;16.88;100.00
73240;BME280;61452;40.054;4.110;2024-03-23T12:16:14;102128.84;;;16.88;100.00
73240;BME280;61452;40.054;4.110;2024-03-23T12:21:15;102119.03;;;16.90;100.00
73240;BME280;61452;40.054;4.110;2024-03-23T12:26:17;102104.84;;;16.91;100.00
73240;BME280;61452;40.054;4.110;2024-03-23T12:31:18;102106.53;;;16.92;100.00
73240;BME280;61452;40.054;4.110;2024-03-23T12:36:19;102106.53;;;16.92;100.00
73240;BME280;61452;40.054;4.110;2024-03-23T12:41:21;102111.84;;;16.92;100.00
73240;BME280;61452;40.054;4.110;2024-03-23T12:46:22;102117.06;;;16.93;100.00
73240;BME280;61452;40.054;4.110;2024-03-23T12:51:24;102120.50;;;16.95;100.00
73240;BME280;61452;40.054;4.110;2024-03-23T12:56:25;102116.13;;;16.94;100.00
73240;BME280;61452;40.054;4.110;2024-03-23T13:01:26;102114.41;;;16.93;100.00
73240;BME280;61452;40.054;4.110;2024-03-23T13:06:27;102120.59;;;16.94;100.00
73240;BME280;61452;40.054;4.110;2024-03-23T13:11:32;102120.59;;;16.94;100.00
73240;BME280;61452;40.054;4.110;2024-03-23T13:16:33;102120.50;;;16.95;100.00
73240;BME280;61452;40.054;4.110;2024-03-23T13:21:35;102115.97;;;16.97;100.00
73240;BME280;61452;40.054;4.110;2024-03-23T13:26:36;102094.94;;;16.94;100.00
73240;BME280;61452;40.054;4.110;2024-03-23T13:31:37;102101.09;;;16.95;100.00
73240;BME280;61452;40.054;4.110;2024-03-23T13:36:38;102109.03;;;16.95;100.00
73240;BME280;61452;40.054;4.110;2024-03-23T13:41:45;102104.53;;;16.97;100.00
73240;BME280;61452;40.054;4.110;2024-03-23T13:46:47;102104.41;;;16.98;100.00
73240;BME280;61452;40.054;4.110;2024-03-23T13:51:48;102093.06;;;16.96;100.00
73240;BME280;61452;40.054;4.110;2024-03-23T13:56:50;102097.41;;;16.97;100.00
73240;BME280;61452;40.054;4.110;2024-03-23T14:01:51;102095.63;;;16.98;100.00
73240;BME280;61452;40.054;4.110;2024-03-23T14:06:52;102099.91;;;17.01;100.00
73240;BME280;61452;40.054;4.110;2024-03-23T14:11:54;102097.25;;;17.01;100.00
73240;BME280;61452;40.054;4.110;2024-03-23T14:16:54;102092.88;;;16.99;100.00
73240;BME280;61452;40.054;4.110;2024-03-23T14:21:56;102092.88;;;16.99;100.00
73240;BME280;61452;40.054;4.110;2024-03-23T14:26:57;102076.03;;;17.01;100.00
73240;BME280;61452;40.054;4.110;2024-03-23T14:31:58;102083.00;;;17.03;100.00
73240;BME280;61452;40.054;4.110;2024-03-23T14:36:59;102075.03;;;17.03;100.00
73240;BME280;61452;40.054;4.110;2024-03-23T14:42:01;102061.00;;;17.01;100.00
73240;BME280;61452;40.054;4.110;2024-03-23T14:47:02;102051.25;;;17.02;100.00
73240;BME280;61452;40.054;4.110;2024-03-23T14:52:11;102055.69;;;17.01;100.00
73240;BME280;61452;40.054;4.110;2024-03-23T14:57:12;102052.88;;;17.04;100.00
73240;BME280;61452;40.054;4.110;2024-03-23T15:02:13;102044.06;;;17.04;100.00
73240;BME280;61452;40.054;4.110;2024-03-23T15:07:15;102038.84;;;17.02;100.00
73240;BME280;61452;40.054;4.110;2024-03-23T15:12:17;102043.13;;;17.05;100.00
73240;BME280;61452;40.054;4.110;2024-03-23T15:17:18;102023.81;;;17.03;100.00
73240;BME280;61452;40.054;4.110;2024-03-23T15:22:19;102018.31;;;17.06;100.00
73240;BME280;61452;40.054;4.110;2024-03-23T15:27:22;102015.66;;;17.06;100.00
73240;BME280;61452;40.054;4.110;2024-03-23T15:32:23;102024.47;;;17.06;100.00
73240;BME280;61452;40.054;4.110;2024-03-23T15:37:24;102022.75;;;17.05;100.00
73240;BME280;61452;40.054;4.110;2024-03-23T15:42:25;102020.97;;;17.06;100.00
73240;BME280;61452;40.054;4.110;2024-03-23T15:47:26;102011.16;;;17.08;100.00
73240;BME280;61452;40.054;4.110;2024-03-23T15:52:27;102013.81;;;17.08;100.00
73240;BME280;61452;40.054;4.110;2024-03-23T15:57:28;101999.69;;;17.07;100.00
73240;BME280;61452;40.054;4.110;2024-03-23T16:02:29;102003.28;;;17.06;100.00
73240;BME280;61452;40.054;4.110;2024-03-23T16:07:31;101994.47;;;17.06;100.00
73240;BME280;61452;40.054;4.110;2024-03-23T16:12:32;101993.53;;;17.07;100.00
73240;BME280;61452;40.054;4.110;2024-03-23T16:17:33;101986.59;;;17.04;100.00
73240;BME280;61452;40.054;4.110;2024-03-23T16:22:36;101985.56;;;17.07;100.00
73240;BME280;61452;40.054;4.110;2024-03-23T16:27:37;101987.22;;;17.09;100.00
73240;BME280;61452;40.054;4.110;2024-03-23T16:32:38;101988.03;;;17.10;100.00
73240;BME280;61452;40.054;4.110;2024-03-23T16:37:40;101972.31;;;17.07;100.00
73240;BME280;61452;40.054;4.110;2024-03-23T16:42:42;101985.66;;;17.05;100.00
73240;BME280;61452;40.054;4.110;2024-03-23T16:47:43;101982.94;;;17.07;100.00
73240;BME280;61452;40.054;4.110;2024-03-23T16:52:45;101976.59;;;17.09;100.00
73240;BME280;61452;40.054;4.110;2024-03-23T16:57:46;101970.59;;;17.06;100.00
73240;BME280;61452;40.054;4.110;2024-03-23T17:02:48;101968.75;;;17.08;100.00
73240;BME280;61452;40.054;4.110;2024-03-23T17:07:49;101975.84;;;17.07;100.00
73240;BME280;61452;40.054;4.110;2024-03-23T17:12:50;101972.25;;;17.08;100.00
73240;BME280;61452;40.054;4.110;2024-03-23T17:17:51;101977.53;;;17.08;100.00
73240;BME280;61452;40.054;4.110;2024-03-23T17:22:55;101976.59;;;17.09;100.00
73240;BME280;61452;40.054;4.110;2024-03-23T17:27:56;101973.97;;;17.09;100.00
73240;BME280;61452;40.054;4.110;2024-03-23T17:32:57;101976.69;;;17.08;100.00
73240;BME280;61452;40.054;4.110;2024-03-23T17:37:58;101965.16;;;17.09;100.00
73240;BME280;61452;40.054;4.110;2024-03-23T17:42:59;101978.28;;;17.10;100.00
73240;BME280;61452;40.054;4.110;2024-03-23T17:48:00;101964.09;;;17.11;100.00
73240;BME280;61452;40.054;4.110;2024-03-23T17:53:02;101966.81;;;17.10;100.00
73240;BME280;61452;40.054;4.110;2024-03-23T17:58:03;101961.63;;;17.08;100.00
73240;BME280;61452;40.054;4.110;2024-03-23T18:03:04;101969.47;;;17.10;100.00
73240;BME280;61452;40.054;4.110;2024-03-23T18:08:05;101966.75;;;17.11;100.00
73240;BME280;61452;40.054;4.110;2024-03-23T18:13:07;101970.25;;;17.12;100.00
73240;BME280;61452;40.054;4.110;2024-03-23T18:18:08;101962.38;;;17.10;100.00
73240;BME280;61452;40.054;4.110;2024-03-23T18:23:10;101967.88;;;17.07;100.00
73240;BME280;61452;40.054;4.110;2024-03-23T18:28:11;101958.06;;;17.09;100.00
73240;BME280;61452;40.054;4.110;2024-03-23T18:33:12;101962.38;;;17.10;100.00
73240;BME280;61452;40.054;4.110;2024-03-23T18:38:13;101961.53;;;17.10;100.00
73240;BME280;61452;40.054;4.110;2024-03-23T18:43:15;101966.00;;;17.09;100.00
73240;BME280;61452;40.054;4.110;2024-03-23T18:48:16;101978.41;;;17.09;100.00
73240;BME280;61452;40.054;4.110;2024-03-23T18:53:17;101970.34;;;17.10;100.00
73240;BME280;61452;40.054;4.110;2024-03-23T18:58:19;101969.41;;;17.11;100.00
73240;BME280;61452;40.054;4.110;2024-03-23T19:03:20;101972.91;;;17.12;100.00
73240;BME280;61452;40.054;4.110;2024-03-23T19:08:22;101967.69;;;17.10;100.00
73240;BME280;61452;40.054;4.110;2024-03-23T19:13:24;101978.28;;;17.10;100.00
73240;BME280;61452;40.054;4.110;2024-03-23T19:18:25;101975.63;;;17.10;100.00
73240;BME280;61452;40.054;4.110;2024-03-23T19:23:27;101983.50;;;17.12;100.00
73240;BME280;61452;40.054;4.110;2024-03-23T19:28:31;101986.16;;;17.12;100.00
73240;BME280;61452;40.054;4.110;2024-03-23T19:33:32;101983.50;;;17.12;100.00
73240;BME280;61452;40.054;4.110;2024-03-23T19:38:34;101979.25;;;17.09;100.00
73240;BME280;61452;40.054;4.110;2024-03-23T19:43:35;101980.09;;;17.10;100.00
73240;BME280;61452;40.054;4.110;2024-03-23T19:48:37;101990.63;;;17.11;100.00
73240;BME280;61452;40.054;4.110;2024-03-23T19:53:38;101987.03;;;17.12;100.00
73240;BME280;61452;40.054;4.110;2024-03-23T19:58:39;101996.84;;;17.10;100.00
73240;BME280;61452;40.054;4.110;2024-03-23T20:03:40;101999.50;;;17.10;100.00
73240;BME280;61452;40.054;4.110;2024-03-23T20:08:42;102004.72;;;17.12;100.00
73240;BME280;61452;40.054;4.110;2024-03-23T20:13:43;102000.28;;;17.12;100.00
73240;BME280;61452;40.054;4.110;2024-03-23T20:18:44;101994.97;;;17.12;100.00
73240;BME280;61452;40.054;4.110;2024-03-23T20:23:45;101990.63;;;17.11;100.00
73240;BME280;61452;40.054;4.110;2024-03-23T20:28:46;101990.63;;;17.11;100.00
73240;BME280;61452;40.054;4.110;2024-03-23T20:33:47;101984.44;;;17.11;100.00
73240;BME280;61452;40.054;4.110;2024-03-23T20:38:49;101988.03;;;17.10;100.00
73240;BME280;61452;40.054;4.110;2024-03-23T20:43:50;102002.94;;;17.12;100.00
73240;BME280;61452;40.054;4.110;2024-03-23T20:48:51;101996.78;;;17.12;100.00
73240;BME280;61452;40.054;4.110;2024-03-23T20:53:52;101990.63;;;17.11;100.00
73240;BME280;61452;40.054;4.110;2024-03-23T20:58:53;101993.34;;;17.10;100.00
73240;BME280;61452;40.054;4.110;2024-03-23T21:03:54;102001.22;;;17.11;100.00
73240;BME280;61452;40.054;4.110;2024-03-23T21:08:56;101996.84;;;17.10;100.00
73240;BME280;61452;40.054;4.110;2024-03-23T21:13:57;101989.88;;;17.09;100.00
73240;BME280;61452;40.054;4.110;2024-03-23T21:18:58;101988.03;;;17.10;100.00
73240;BME280;61452;40.054;4.110;2024-03-23T21:24:00;101987.03;;;17.12;100.00
73240;BME280;61452;40.054;4.110;2024-03-23T21:29:01;101977.28;;;17.13;100.00
73240;BME280;61452;40.054;4.110;2024-03-23T21:34:02;101976.50;;;17.11;100.00
73240;BME280;61452;40.054;4.110;2024-03-23T21:39:03;101973.97;;;17.09;100.00
73240;BME280;61452;40.054;4.110;2024-03-23T21:44:08;101974.91;;;17.08;100.00
73240;BME280;61452;40.054;4.110;2024-03-23T21:49:09;101973.19;;;17.07;100.00
73240;BME280;61452;40.054;4.110;2024-03-23T21:54:10;101972.13;;;17.10;100.00
73240;BME280;61452;40.054;4.110;2024-03-23T21:59:11;101962.38;;;17.10;100.00
73240;BME280;61452;40.054;4.110;2024-03-23T22:04:12;101958.81;;;17.11;100.00
73240;BME280;61452;40.054;4.110;2024-03-23T22:09:13;101950.09;;;17.09;100.00
73240;BME280;61452;40.054;4.110;2024-03-23T22:14:15;101958.13;;;17.08;100.00
73240;BME280;61452;40.054;4.110;2024-03-23T22:19:16;101954.53;;;17.09;100.00
73240;BME280;61452;40.054;4.110;2024-03-23T22:24:17;101959.00;;;17.08;100.00
73240;BME280;61452;40.054;4.110;2024-03-23T22:29:19;101954.63;;;17.07;100.00
73240;BME280;61452;40.054;4.110;2024-03-23T22:34:20;101951.97;;;17.07;100.00
73240;BME280;61452;40.054;4.110;2024-03-23T22:39:22;101942.22;;;17.08;100.00
73240;BME280;61452;40.054;4.110;2024-03-23T22:44:23;101947.44;;;17.09;100.00
73240;BME280;61452;40.054;4.110;2024-03-23T22:49:24;101929.63;;;17.11;100.00
73240;BME280;61452;40.054;4.110;2024-03-23T22:54:25;101936.00;;;17.09;100.00
73240;BME280;61452;40.054;4.110;2024-03-23T22:59:27;101942.22;;;17.08;100.00
73240;BME280;61452;40.054;4.110;2024-03-23T23:04:28;101928.88;;;17.09;100.00
73240;BME280;61452;40.054;4.110;2024-03-23T23:09:34;101937.66;;;17.10;100.00
73240;BME280;61452;40.054;4.110;2024-03-23T23:14:35;101929.72;;;17.10;100.00
73240;BME280;61452;40.054;4.110;2024-03-23T23:19:36;101937.66;;;17.10;100.00
73240;BME280;61452;40.054;4.110;2024-03-23T23:24:37;101943.16;;;17.07;100.00
73240;BME280;61452;40.054;4.110;2024-03-23T23:29:40;101928.13;;;17.07;100.00
73240;BME280;61452;40.054;4.110;2024-03-23T23:34:41;101938.63;;;17.09;100.00
73240;BME280;61452;40.054;4.110;2024-03-23T23:39:42;101931.69;;;17.06;100.00
73240;BME280;61452;40.054;4.110;2024-03-23T23:44:43;101936.94;;;17.08;100.00
73240;BME280;61452;40.054;4.110;2024-03-23T23:49:45;101938.63;;;17.09;100.00
73240;BME280;61452;40.054;4.110;2024-03-23T23:54:46;101937.84;;;17.07;100.00
73240;BME280;61452;40.054;4.110;2024-03-23T23:59:47;101940.59;;;17.05;100.00
